sensor_id;sensor_type;location;lat;lon;timestamp;P1;durP1;ratioP1;P2;durP2;ratioP2
57627;SDS011;43451;49.060;10.616;2022-12-18T00:01:03;87.65;;;25.40;;
57627;SDS011;43451;49.060;10.616;2022-12-18T00:03:34;77.40;;;24.80;;
57627;SDS011;43451;49.060;10.616;2022-12-18T00:06:00;76.00;;;24.65;;
57627;SDS011;43451;49.060;10.616;2022-12-18T00:08:26;73.60;;;24.42;;
57627;SDS011;43451;49.060;10.616;2022-12-18T00:10:52;70.70;;;22.75;;
57627;SDS011;43451;49.060;10.616;2022-12-18T00:13:17;78.72;;;23.48;;
57627;SDS011;43451;49.060;10.616;2022-12-18T00:15:42;77.35;;;23.38;;
57627;SDS011;43451;49.060;10.616;2022-12-18T00:18:08;81.03;;;24.35;;
57627;SDS011;43451;49.060;10.616;2022-12-18T00:20:37;94.07;;;29.52;;
57627;SDS011;43451;49.060;10.616;2022-12-18T00:23:03;96.05;;;29.23;;
57627;SDS011;43451;49.060;10.616;2022-12-18T00:25:32;97.38;;;28.42;;
57627;SDS011;43451;49.060;10.616;2022-12-18T00:27:58;103.10;;;28.20;;
57627;SDS011;43451;49.060;10.616;2022-12-18T00:30:24;85.93;;;28.70;;
57627;SDS011;43451;49.060;10.616;2022-12-18T00:32:49;89.25;;;26.02;;
57627;SDS011;43451;49.060;10.616;2022-12-18T00:35:14;88.70;;;26.17;;
57627;SDS011;43451;49.060;10.616;2022-12-18T00:37:40;78.72;;;24.83;;
57627;SDS011;43451;49.060;10.616;2022-12-18T00:40:05;86.80;;;26.50;;
57627;SDS011;43451;49.060;10.616;2022-12-18T00:42:32;86.72;;;26.65;;
57627;SDS011;43451;49.060;10.616;2022-12-18T00:45:16;88.63;;;27.08;;
57627;SDS011;43451;49.060;10.616;2022-12-18T00:47:41;89.05;;;27.60;;
57627;SDS011;43451;49.060;10.616;2022-12-18T00:50:07;83.65;;;26.77;;
57627;SDS011;43451;49.060;10.616;2022-12-18T00:52:34;76.47;;;25.33;;
57627;SDS011;43451;49.060;10.616;2022-12-18T00:54:59;88.70;;;27.83;;
57627;SDS011;43451;49.060;10.616;2022-12-18T00:57:24;85.72;;;27.42;;
57627;SDS011;43451;49.060;10.616;2022-12-18T00:59:50;74.45;;;23.95;;
57627;SDS011;43451;49.060;10.616;2022-12-18T01:02:15;80.95;;;26.65;;
57627;SDS011;43451;49.060;10.616;2022-12-18T01:04:41;84.50;;;28.08;;
57627;SDS011;43451;49.060;10.616;2022-12-18T01:07:06;106.45;;;31.52;;
57627;SDS011;43451;49.060;10.616;2022-12-18T01:09:31;95.35;;;29.73;;
57627;SDS011;43451;49.060;10.616;2022-12-18T01:11:57;136.63;;;39.28;;
57627;SDS011;43451;49.060;10.616;2022-12-18T01:14:22;106.05;;;31.88;;
57627;SDS011;43451;49.060;10.616;2022-12-18T01:16:48;81.53;;;24.90;;
57627;SDS011;43451;49.060;10.616;2022-12-18T01:19:13;78.65;;;25.45;;
57627;SDS011;43451;49.060;10.616;2022-12-18T01:21:39;88.38;;;26.23;;
57627;SDS011;43451;49.060;10.616;2022-12-18T01:24:04;87.75;;;25.33;;
57627;SDS011;43451;49.060;10.616;2022-12-18T01:26:31;94.97;;;27.38;;
57627;SDS011;43451;49.060;10.616;2022-12-18T01:28:56;89.75;;;24.90;;
57627;SDS011;43451;49.060;10.616;2022-12-18T01:31:24;89.35;;;25.73;;
57627;SDS011;43451;49.060;10.616;2022-12-18T01:33:51;93.13;;;26.08;;
57627;SDS011;43451;49.060;10.616;2022-12-18T01:36:28;89.07;;;26.65;;
57627;SDS011;43451;49.060;10.616;2022-12-18T01:38:55;96.00;;;27.05;;
57627;SDS011;43451;49.060;10.616;2022-12-18T01:41:26;91.68;;;24.98;;
57627;SDS011;43451;49.060;10.616;2022-12-18T01:50:01;94.47;;;24.10;;
57627;SDS011;43451;49.060;10.616;2022-12-18T01:52:31;90.18;;;23.85;;
57627;SDS011;43451;49.060;10.616;2022-12-18T01:54:58;93.28;;;25.95;;
57627;SDS011;43451;49.060;10.616;2022-12-18T01:57:26;98.38;;;26.20;;
57627;SDS011;43451;49.060;10.616;2022-12-18T01:59:54;99.40;;;26.65;;
57627;SDS011;43451;49.060;10.616;2022-12-18T02:02:24;94.57;;;25.80;;
57627;SDS011;43451;49.060;10.616;2022-12-18T02:04:52;94.40;;;25.55;;
57627;SDS011;43451;49.060;10.616;2022-12-18T02:15:39;105.88;;;27.45;;
57627;SDS011;43451;49.060;10.616;2022-12-18T02:29:13;92.38;;;26.25;;
57627;SDS011;43451;49.060;10.616;2022-12-18T02:31:43;90.70;;;26.30;;
57627;SDS011;43451;49.060;10.616;2022-12-18T02:34:12;86.70;;;26.02;;
57627;SDS011;43451;49.060;10.616;2022-12-18T02:36:40;91.00;;;27.05;;
57627;SDS011;43451;49.060;10.616;2022-12-18T02:39:09;108.65;;;28.25;;
57627;SDS011;43451;49.060;10.616;2022-12-18T02:41:36;95.38;;;27.17;;
57627;SDS011;43451;49.060;10.616;2022-12-18T02:44:07;107.00;;;29.63;;
57627;SDS011;43451;49.060;10.616;2022-12-18T02:46:36;98.22;;;28.35;;
57627;SDS011;43451;49.060;10.616;2022-12-18T03:00:19;83.55;;;25.92;;
57627;SDS011;43451;49.060;10.616;2022-12-18T03:02:57;83.85;;;25.63;;
57627;SDS011;43451;49.060;10.616;2022-12-18T03:08:26;78.78;;;25.33;;
57627;SDS011;43451;49.060;10.616;2022-12-18T03:11:02;77.90;;;25.95;;
57627;SDS011;43451;49.060;10.616;2022-12-18T03:13:34;84.70;;;25.60;;
57627;SDS011;43451;49.060;10.616;2022-12-18T03:16:21;79.10;;;25.42;;
57627;SDS011;43451;49.060;10.616;2022-12-18T03:18:51;75.82;;;25.52;;
57627;SDS011;43451;49.060;10.616;2022-12-18T03:21:21;77.75;;;25.27;;
57627;SDS011;43451;49.060;10.616;2022-12-18T03:23:59;76.40;;;25.95;;
57627;SDS011;43451;49.060;10.616;2022-12-18T03:26:25;75.10;;;25.00;;
57627;SDS011;43451;49.060;10.616;2022-12-18T03:28:53;71.70;;;24.80;;
57627;SDS011;43451;49.060;10.616;2022-12-18T03:31:24;73.30;;;24.30;;
57627;SDS011;43451;49.060;10.616;2022-12-18T03:36:19;71.13;;;24.48;;
57627;SDS011;43451;49.060;10.616;2022-12-18T03:38:45;63.10;;;22.90;;
57627;SDS011;43451;49.060;10.616;2022-12-18T03:47:04;67.53;;;22.38;;
57627;SDS011;43451;49.060;10.616;2022-12-18T03:49:36;65.50;;;21.27;;
57627;SDS011;43451;49.060;10.616;2022-12-18T03:52:06;63.38;;;21.58;;
57627;SDS011;43451;49.060;10.616;2022-12-18T03:54:47;67.00;;;21.58;;
57627;SDS011;43451;49.060;10.616;2022-12-18T03:57:14;61.40;;;19.88;;
57627;SDS011;43451;49.060;10.616;2022-12-18T03:59:46;63.35;;;21.50;;
57627;SDS011;43451;49.060;10.616;2022-12-18T04:02:15;62.78;;;20.92;;
57627;SDS011;43451;49.060;10.616;2022-12-18T04:04:42;58.38;;;21.50;;
57627;SDS011;43451;49.060;10.616;2022-12-18T04:07:09;63.90;;;20.67;;
57627;SDS011;43451;49.060;10.616;2022-12-18T04:09:36;60.22;;;20.80;;
57627;SDS011;43451;49.060;10.616;2022-12-18T04:12:06;60.00;;;21.40;;
57627;SDS011;43451;49.060;10.616;2022-12-18T04:14:31;57.58;;;20.27;;
57627;SDS011;43451;49.060;10.616;2022-12-18T04:17:00;58.90;;;20.02;;
57627;SDS011;43451;49.060;10.616;2022-12-18T04:19:26;59.58;;;20.40;;
57627;SDS011;43451;49.060;10.616;2022-12-18T04:21:52;61.00;;;20.40;;
57627;SDS011;43451;49.060;10.616;2022-12-18T04:24:17;60.95;;;19.55;;
57627;SDS011;43451;49.060;10.616;2022-12-18T04:26:42;51.95;;;18.65;;
57627;SDS011;43451;49.060;10.616;2022-12-18T04:29:08;56.75;;;18.85;;
57627;SDS011;43451;49.060;10.616;2022-12-18T04:31:33;55.60;;;18.45;;
57627;SDS011;43451;49.060;10.616;2022-12-18T04:33:59;59.17;;;20.20;;
57627;SDS011;43451;49.060;10.616;2022-12-18T04:36:24;60.13;;;20.15;;
57627;SDS011;43451;49.060;10.616;2022-12-18T04:38:50;62.17;;;20.85;;
57627;SDS011;43451;49.060;10.616;2022-12-18T04:41:15;61.67;;;20.33;;
57627;SDS011;43451;49.060;10.616;2022-12-18T04:43:41;61.10;;;21.35;;
57627;SDS011;43451;49.060;10.616;2022-12-18T04:46:07;55.42;;;20.08;;
57627;SDS011;43451;49.060;10.616;2022-12-18T04:48:33;55.90;;;19.73;;
57627;SDS011;43451;49.060;10.616;2022-12-18T04:50:59;53.40;;;18.73;;
57627;SDS011;43451;49.060;10.616;2022-12-18T04:53:25;58.72;;;20.10;;
57627;SDS011;43451;49.060;10.616;2022-12-18T04:55:51;57.92;;;19.80;;
57627;SDS011;43451;49.060;10.616;2022-12-18T04:58:26;57.00;;;18.75;;
57627;SDS011;43451;49.060;10.616;2022-12-18T05:00:51;51.30;;;18.58;;
57627;SDS011;43451;49.060;10.616;2022-12-18T05:03:17;50.55;;;17.83;;
57627;SDS011;43451;49.060;10.616;2022-12-18T05:05:42;53.45;;;17.77;;
57627;SDS011;43451;49.060;10.616;2022-12-18T05:08:08;56.08;;;18.92;;
57627;SDS011;43451;49.060;10.616;2022-12-18T05:10:33;53.70;;;17.88;;
57627;SDS011;43451;49.060;10.616;2022-12-18T05:12:58;53.88;;;17.85;;
57627;SDS011;43451;49.060;10.616;2022-12-18T05:15:26;55.15;;;17.50;;
57627;SDS011;43451;49.060;10.616;2022-12-18T05:17:56;50.08;;;17.13;;
57627;SDS011;43451;49.060;10.616;2022-12-18T05:20:23;52.33;;;18.05;;
57627;SDS011;43451;49.060;10.616;2022-12-18T05:22:48;49.28;;;17.30;;
57627;SDS011;43451;49.060;10.616;2022-12-18T05:25:14;49.10;;;16.67;;
57627;SDS011;43451;49.060;10.616;2022-12-18T05:27:40;47.10;;;16.60;;
57627;SDS011;43451;49.060;10.616;2022-12-18T05:30:05;49.92;;;17.27;;
57627;SDS011;43451;49.060;10.616;2022-12-18T05:32:31;50.13;;;17.05;;
57627;SDS011;43451;49.060;10.616;2022-12-18T05:34:57;53.65;;;16.98;;
57627;SDS011;43451;49.060;10.616;2022-12-18T05:37:22;47.03;;;17.27;;
57627;SDS011;43451;49.060;10.616;2022-12-18T05:39:48;49.70;;;16.55;;
57627;SDS011;43451;49.060;10.616;2022-12-18T05:42:13;52.13;;;17.17;;
57627;SDS011;43451;49.060;10.616;2022-12-18T05:44:39;49.42;;;17.73;;
57627;SDS011;43451;49.060;10.616;2022-12-18T05:47:04;47.30;;;15.43;;
57627;SDS011;43451;49.060;10.616;2022-12-18T05:49:30;62.17;;;18.33;;
57627;SDS011;43451;49.060;10.616;2022-12-18T05:51:55;56.38;;;16.13;;
57627;SDS011;43451;49.060;10.616;2022-12-18T05:54:21;51.50;;;16.55;;
57627;SDS011;43451;49.060;10.616;2022-12-18T05:56:46;52.80;;;17.00;;
57627;SDS011;43451;49.060;10.616;2022-12-18T05:59:12;58.33;;;16.90;;
57627;SDS011;43451;49.060;10.616;2022-12-18T06:01:37;54.90;;;17.08;;
57627;SDS011;43451;49.060;10.616;2022-12-18T06:04:03;52.97;;;16.45;;
57627;SDS011;43451;49.060;10.616;2022-12-18T06:06:29;57.55;;;16.60;;
57627;SDS011;43451;49.060;10.616;2022-12-18T06:08:54;61.15;;;17.58;;
57627;SDS011;43451;49.060;10.616;2022-12-18T06:11:21;52.58;;;16.38;;
57627;SDS011;43451;49.060;10.616;2022-12-18T06:13:52;58.17;;;17.83;;
57627;SDS011;43451;49.060;10.616;2022-12-18T06:16:21;54.15;;;17.13;;
57627;SDS011;43451;49.060;10.616;2022-12-18T06:18:46;54.08;;;16.58;;
57627;SDS011;43451;49.060;10.616;2022-12-18T06:21:12;53.92;;;16.35;;
57627;SDS011;43451;49.060;10.616;2022-12-18T06:23:37;52.20;;;16.85;;
57627;SDS011;43451;49.060;10.616;2022-12-18T06:26:03;47.30;;;15.38;;
57627;SDS011;43451;49.060;10.616;2022-12-18T06:28:32;52.22;;;16.88;;
57627;SDS011;43451;49.060;10.616;2022-12-18T06:30:58;50.97;;;15.95;;
57627;SDS011;43451;49.060;10.616;2022-12-18T06:33:25;54.00;;;15.85;;
57627;SDS011;43451;49.060;10.616;2022-12-18T06:35:53;52.95;;;15.63;;
57627;SDS011;43451;49.060;10.616;2022-12-18T06:38:18;51.72;;;16.30;;
57627;SDS011;43451;49.060;10.616;2022-12-18T06:40:44;42.38;;;14.95;;
57627;SDS011;43451;49.060;10.616;2022-12-18T06:43:09;50.17;;;15.55;;
57627;SDS011;43451;49.060;10.616;2022-12-18T06:45:34;48.63;;;15.20;;
57627;SDS011;43451;49.060;10.616;2022-12-18T06:48:00;49.30;;;14.88;;
57627;SDS011;43451;49.060;10.616;2022-12-18T06:50:25;47.75;;;14.90;;
57627;SDS011;43451;49.060;10.616;2022-12-18T06:52:50;52.85;;;15.57;;
57627;SDS011;43451;49.060;10.616;2022-12-18T06:55:16;46.95;;;14.80;;
57627;SDS011;43451;49.060;10.616;2022-12-18T06:57:41;42.90;;;13.55;;
57627;SDS011;43451;49.060;10.616;2022-12-18T07:00:07;50.33;;;15.57;;
57627;SDS011;43451;49.060;10.616;2022-12-18T07:02:33;46.47;;;14.48;;
57627;SDS011;43451;49.060;10.616;2022-12-18T07:04:59;45.10;;;13.50;;
57627;SDS011;43451;49.060;10.616;2022-12-18T07:07:24;43.00;;;14.55;;
57627;SDS011;43451;49.060;10.616;2022-12-18T07:09:50;44.38;;;14.23;;
57627;SDS011;43451;49.060;10.616;2022-12-18T07:12:16;46.92;;;15.13;;
57627;SDS011;43451;49.060;10.616;2022-12-18T07:14:41;46.90;;;15.18;;
57627;SDS011;43451;49.060;10.616;2022-12-18T07:17:07;43.55;;;12.82;;
57627;SDS011;43451;49.060;10.616;2022-12-18T07:19:32;44.47;;;13.95;;
57627;SDS011;43451;49.060;10.616;2022-12-18T07:21:58;44.65;;;14.52;;
57627;SDS011;43451;49.060;10.616;2022-12-18T07:24:24;47.38;;;14.57;;
57627;SDS011;43451;49.060;10.616;2022-12-18T07:26:49;46.47;;;14.75;;
57627;SDS011;43451;49.060;10.616;2022-12-18T07:29:15;48.40;;;15.23;;
57627;SDS011;43451;49.060;10.616;2022-12-18T07:31:40;45.03;;;14.18;;
57627;SDS011;43451;49.060;10.616;2022-12-18T07:34:09;45.95;;;13.60;;
57627;SDS011;43451;49.060;10.616;2022-12-18T07:36:35;48.28;;;14.65;;
57627;SDS011;43451;49.060;10.616;2022-12-18T07:39:00;43.33;;;13.15;;
57627;SDS011;43451;49.060;10.616;2022-12-18T07:41:26;40.15;;;14.30;;
57627;SDS011;43451;49.060;10.616;2022-12-18T07:43:51;41.95;;;13.73;;
57627;SDS011;43451;49.060;10.616;2022-12-18T07:46:17;36.70;;;13.23;;
57627;SDS011;43451;49.060;10.616;2022-12-18T07:48:43;43.15;;;14.02;;
57627;SDS011;43451;49.060;10.616;2022-12-18T07:51:08;44.65;;;14.32;;
57627;SDS011;43451;49.060;10.616;2022-12-18T07:53:34;46.08;;;13.60;;
57627;SDS011;43451;49.060;10.616;2022-12-18T07:56:01;40.55;;;13.02;;
57627;SDS011;43451;49.060;10.616;2022-12-18T07:58:30;44.20;;;14.40;;
57627;SDS011;43451;49.060;10.616;2022-12-18T08:01:05;43.00;;;14.00;;
57627;SDS011;43451;49.060;10.616;2022-12-18T08:03:32;39.20;;;12.98;;
57627;SDS011;43451;49.060;10.616;2022-12-18T08:06:01;41.70;;;13.27;;
57627;SDS011;43451;49.060;10.616;2022-12-18T08:08:28;40.72;;;12.70;;
57627;SDS011;43451;49.060;10.616;2022-12-18T08:10:54;43.97;;;13.38;;
57627;SDS011;43451;49.060;10.616;2022-12-18T08:13:20;43.40;;;13.80;;
57627;SDS011;43451;49.060;10.616;2022-12-18T08:15:46;44.28;;;14.82;;
57627;SDS011;43451;49.060;10.616;2022-12-18T08:18:11;41.00;;;14.05;;
57627;SDS011;43451;49.060;10.616;2022-12-18T08:20:36;43.45;;;14.25;;
57627;SDS011;43451;49.060;10.616;2022-12-18T08:23:02;41.95;;;13.30;;
57627;SDS011;43451;49.060;10.616;2022-12-18T08:25:27;41.40;;;12.82;;
57627;SDS011;43451;49.060;10.616;2022-12-18T08:27:53;45.45;;;13.77;;
57627;SDS011;43451;49.060;10.616;2022-12-18T08:30:18;42.75;;;14.27;;
57627;SDS011;43451;49.060;10.616;2022-12-18T08:32:44;44.13;;;15.25;;
57627;SDS011;43451;49.060;10.616;2022-12-18T08:35:09;43.65;;;15.63;;
57627;SDS011;43451;49.060;10.616;2022-12-18T08:37:36;42.38;;;13.68;;
57627;SDS011;43451;49.060;10.616;2022-12-18T08:40:02;42.35;;;14.10;;
57627;SDS011;43451;49.060;10.616;2022-12-18T08:42:27;39.58;;;13.55;;
57627;SDS011;43451;49.060;10.616;2022-12-18T08:45:11;43.33;;;14.45;;
57627;SDS011;43451;49.060;10.616;2022-12-18T08:47:36;38.55;;;13.70;;
57627;SDS011;43451;49.060;10.616;2022-12-18T08:50:02;39.72;;;12.55;;
57627;SDS011;43451;49.060;10.616;2022-12-18T08:52:27;38.45;;;12.80;;
57627;SDS011;43451;49.060;10.616;2022-12-18T08:54:53;37.83;;;13.07;;
57627;SDS011;43451;49.060;10.616;2022-12-18T08:57:19;37.95;;;13.48;;
57627;SDS011;43451;49.060;10.616;2022-12-18T08:59:45;41.97;;;13.32;;
57627;SDS011;43451;49.060;10.616;2022-12-18T09:02:10;40.45;;;13.57;;
57627;SDS011;43451;49.060;10.616;2022-12-18T09:04:36;40.75;;;13.88;;
57627;SDS011;43451;49.060;10.616;2022-12-18T09:07:02;40.67;;;13.05;;
57627;SDS011;43451;49.060;10.616;2022-12-18T09:09:27;37.88;;;13.52;;
57627;SDS011;43451;49.060;10.616;2022-12-18T09:11:53;35.60;;;12.43;;
57627;SDS011;43451;49.060;10.616;2022-12-18T09:14:19;35.05;;;12.80;;
57627;SDS011;43451;49.060;10.616;2022-12-18T09:16:46;36.22;;;12.07;;
57627;SDS011;43451;49.060;10.616;2022-12-18T09:19:13;35.80;;;12.40;;
57627;SDS011;43451;49.060;10.616;2022-12-18T09:21:39;36.85;;;11.93;;
57627;SDS011;43451;49.060;10.616;2022-12-18T09:24:04;34.83;;;12.75;;
57627;SDS011;43451;49.060;10.616;2022-12-18T09:26:30;32.78;;;12.40;;
57627;SDS011;43451;49.060;10.616;2022-12-18T09:28:56;31.73;;;12.15;;
57627;SDS011;43451;49.060;10.616;2022-12-18T09:31:22;34.50;;;12.23;;
57627;SDS011;43451;49.060;10.616;2022-12-18T09:33:49;31.87;;;12.07;;
57627;SDS011;43451;49.060;10.616;2022-12-18T09:36:15;32.13;;;12.50;;
57627;SDS011;43451;49.060;10.616;2022-12-18T09:38:42;33.33;;;12.18;;
57627;SDS011;43451;49.060;10.616;2022-12-18T09:43:49;33.75;;;11.90;;
57627;SDS011;43451;49.060;10.616;2022-12-18T09:46:23;34.08;;;12.52;;
57627;SDS011;43451;49.060;10.616;2022-12-18T09:48:54;33.38;;;12.48;;
57627;SDS011;43451;49.060;10.616;2022-12-18T09:51:28;33.45;;;11.25;;
57627;SDS011;43451;49.060;10.616;2022-12-18T09:53:59;34.20;;;12.18;;
57627;SDS011;43451;49.060;10.616;2022-12-18T09:56:31;33.38;;;12.70;;
57627;SDS011;43451;49.060;10.616;2022-12-18T09:59:02;30.42;;;11.88;;
57627;SDS011;43451;49.060;10.616;2022-12-18T10:01:29;35.05;;;12.75;;
57627;SDS011;43451;49.060;10.616;2022-12-18T10:03:56;34.83;;;13.07;;
57627;SDS011;43451;49.060;10.616;2022-12-18T10:12:04;34.92;;;12.38;;
57627;SDS011;43451;49.060;10.616;2022-12-18T10:14:56;35.80;;;13.02;;
57627;SDS011;43451;49.060;10.616;2022-12-18T10:22:49;34.45;;;13.27;;
57627;SDS011;43451;49.060;10.616;2022-12-18T10:25:23;33.70;;;12.63;;
57627;SDS011;43451;49.060;10.616;2022-12-18T10:28:11;34.58;;;13.15;;
57627;SDS011;43451;49.060;10.616;2022-12-18T10:30:39;30.98;;;12.80;;
57627;SDS011;43451;49.060;10.616;2022-12-18T10:33:08;34.42;;;12.98;;
57627;SDS011;43451;49.060;10.616;2022-12-18T10:35:37;33.50;;;12.55;;
57627;SDS011;43451;49.060;10.616;2022-12-18T10:43:15;36.75;;;13.05;;
57627;SDS011;43451;49.060;10.616;2022-12-18T10:45:44;36.28;;;14.20;;
57627;SDS011;43451;49.060;10.616;2022-12-18T10:51:02;32.72;;;13.38;;
57627;SDS011;43451;49.060;10.616;2022-12-18T10:53:29;36.55;;;13.68;;
57627;SDS011;43451;49.060;10.616;2022-12-18T10:55:57;37.95;;;13.15;;
57627;SDS011;43451;49.060;10.616;2022-12-18T10:58:26;33.75;;;13.65;;
57627;SDS011;43451;49.060;10.616;2022-12-18T11:03:58;35.30;;;13.68;;
57627;SDS011;43451;49.060;10.616;2022-12-18T11:06:25;34.55;;;13.13;;
57627;SDS011;43451;49.060;10.616;2022-12-18T11:08:59;33.63;;;13.07;;
57627;SDS011;43451;49.060;10.616;2022-12-18T11:11:26;34.22;;;13.57;;
57627;SDS011;43451;49.060;10.616;2022-12-18T11:14:03;37.78;;;14.35;;
57627;SDS011;43451;49.060;10.616;2022-12-18T11:16:47;35.40;;;13.32;;
57627;SDS011;43451;49.060;10.616;2022-12-18T11:21:57;33.97;;;13.18;;
57627;SDS011;43451;49.060;10.616;2022-12-18T11:27:01;33.53;;;13.13;;
57627;SDS011;43451;49.060;10.616;2022-12-18T11:29:36;33.85;;;12.63;;
57627;SDS011;43451;49.060;10.616;2022-12-18T11:34:52;34.10;;;13.30;;
57627;SDS011;43451;49.060;10.616;2022-12-18T11:37:24;34.90;;;13.48;;
57627;SDS011;43451;49.060;10.616;2022-12-18T11:40:07;34.65;;;13.65;;
57627;SDS011;43451;49.060;10.616;2022-12-18T11:45:48;38.20;;;14.70;;
57627;SDS011;43451;49.060;10.616;2022-12-18T11:48:20;32.67;;;13.13;;
57627;SDS011;43451;49.060;10.616;2022-12-18T11:50:50;30.90;;;12.88;;
57627;SDS011;43451;49.060;10.616;2022-12-18T11:53:17;36.33;;;14.38;;
57627;SDS011;43451;49.060;10.616;2022-12-18T11:58:37;32.35;;;12.82;;
57627;SDS011;43451;49.060;10.616;2022-12-18T12:10:03;34.83;;;13.55;;
57627;SDS011;43451;49.060;10.616;2022-12-18T12:20:52;31.08;;;12.70;;
57627;SDS011;43451;49.060;10.616;2022-12-18T12:39:57;32.88;;;13.13;;
57627;SDS011;43451;49.060;10.616;2022-12-18T12:42:36;30.15;;;12.48;;
57627;SDS011;43451;49.060;10.616;2022-12-18T12:50:50;31.60;;;13.27;;
57627;SDS011;43451;49.060;10.616;2022-12-18T12:53:23;33.97;;;13.63;;
57627;SDS011;43451;49.060;10.616;2022-12-18T12:55:54;31.05;;;12.98;;
57627;SDS011;43451;49.060;10.616;2022-12-18T12:58:45;30.45;;;12.50;;
57627;SDS011;43451;49.060;10.616;2022-12-18T13:01:23;31.90;;;13.63;;
57627;SDS011;43451;49.060;10.616;2022-12-18T13:04:08;33.40;;;13.88;;
57627;SDS011;43451;49.060;10.616;2022-12-18T13:13:18;35.40;;;14.05;;
57627;SDS011;43451;49.060;10.616;2022-12-18T13:15:42;38.28;;;14.20;;
57627;SDS011;43451;49.060;10.616;2022-12-18T13:25:47;32.58;;;12.95;;
57627;SDS011;43451;49.060;10.616;2022-12-18T13:28:14;31.17;;;12.98;;
57627;SDS011;43451;49.060;10.616;2022-12-18T13:30:51;35.97;;;14.75;;
57627;SDS011;43451;49.060;10.616;2022-12-18T13:38:47;34.10;;;13.15;;
57627;SDS011;43451;49.060;10.616;2022-12-18T13:43:42;33.25;;;13.93;;
57627;SDS011;43451;49.060;10.616;2022-12-18T13:51:39;29.48;;;12.50;;
57627;SDS011;43451;49.060;10.616;2022-12-18T13:54:22;33.30;;;12.65;;
57627;SDS011;43451;49.060;10.616;2022-12-18T13:57:00;30.13;;;12.55;;
57627;SDS011;43451;49.060;10.616;2022-12-18T14:01:58;30.35;;;12.82;;
57627;SDS011;43451;49.060;10.616;2022-12-18T14:04:35;32.38;;;13.32;;
57627;SDS011;43451;49.060;10.616;2022-12-18T14:07:20;35.65;;;13.52;;
57627;SDS011;43451;49.060;10.616;2022-12-18T14:09:55;34.90;;;13.20;;
57627;SDS011;43451;49.060;10.616;2022-12-18T14:12:24;32.05;;;13.13;;
57627;SDS011;43451;49.060;10.616;2022-12-18T14:17:58;33.40;;;13.07;;
57627;SDS011;43451;49.060;10.616;2022-12-18T14:20:26;33.03;;;13.50;;
57627;SDS011;43451;49.060;10.616;2022-12-18T14:22:53;31.58;;;13.45;;
57627;SDS011;43451;49.060;10.616;2022-12-18T14:25:21;30.73;;;12.77;;
57627;SDS011;43451;49.060;10.616;2022-12-18T14:27:52;32.03;;;13.15;;
57627;SDS011;43451;49.060;10.616;2022-12-18T14:30:29;30.85;;;11.77;;
57627;SDS011;43451;49.060;10.616;2022-12-18T14:33:03;32.35;;;12.63;;
57627;SDS011;43451;49.060;10.616;2022-12-18T14:35:30;31.73;;;12.95;;
57627;SDS011;43451;49.060;10.616;2022-12-18T14:40:40;32.13;;;14.07;;
57627;SDS011;43451;49.060;10.616;2022-12-18T14:43:09;35.20;;;13.82;;
57627;SDS011;43451;49.060;10.616;2022-12-18T14:45:36;34.13;;;14.18;;
57627;SDS011;43451;49.060;10.616;2022-12-18T14:48:07;34.75;;;13.52;;
57627;SDS011;43451;49.060;10.616;2022-12-18T14:50:54;32.08;;;13.07;;
57627;SDS011;43451;49.060;10.616;2022-12-18T14:53:23;36.03;;;13.70;;
57627;SDS011;43451;49.060;10.616;2022-12-18T14:55:58;33.40;;;13.10;;
57627;SDS011;43451;49.060;10.616;2022-12-18T14:58:23;36.85;;;14.00;;
57627;SDS011;43451;49.060;10.616;2022-12-18T15:00:49;34.30;;;13.80;;
57627;SDS011;43451;49.060;10.616;2022-12-18T15:03:18;34.55;;;13.90;;
57627;SDS011;43451;49.060;10.616;2022-12-18T15:05:46;34.53;;;13.80;;
57627;SDS011;43451;49.060;10.616;2022-12-18T15:08:28;40.60;;;14.23;;
57627;SDS011;43451;49.060;10.616;2022-12-18T15:10:55;34.67;;;13.70;;
57627;SDS011;43451;49.060;10.616;2022-12-18T15:13:25;33.40;;;13.93;;
57627;SDS011;43451;49.060;10.616;2022-12-18T15:15:51;33.15;;;14.20;;
57627;SDS011;43451;49.060;10.616;2022-12-18T15:20:54;37.08;;;15.10;;
57627;SDS011;43451;49.060;10.616;2022-12-18T15:33:39;36.63;;;14.05;;
57627;SDS011;43451;49.060;10.616;2022-12-18T15:36:08;37.25;;;13.95;;
57627;SDS011;43451;49.060;10.616;2022-12-18T15:38:35;40.20;;;15.48;;
57627;SDS011;43451;49.060;10.616;2022-12-18T15:41:01;36.55;;;14.48;;
57627;SDS011;43451;49.060;10.616;2022-12-18T15:43:27;24.92;;;10.60;;
57627;SDS011;43451;49.060;10.616;2022-12-18T15:48:39;36.42;;;14.95;;
57627;SDS011;43451;49.060;10.616;2022-12-18T15:51:09;36.38;;;14.80;;
57627;SDS011;43451;49.060;10.616;2022-12-18T15:53:41;32.53;;;13.75;;
57627;SDS011;43451;49.060;10.616;2022-12-18T15:56:10;37.20;;;14.23;;
57627;SDS011;43451;49.060;10.616;2022-12-18T15:58:55;39.22;;;16.10;;
57627;SDS011;43451;49.060;10.616;2022-12-18T16:01:22;34.63;;;13.85;;
57627;SDS011;43451;49.060;10.616;2022-12-18T16:03:49;37.50;;;14.98;;
57627;SDS011;43451;49.060;10.616;2022-12-18T16:06:15;33.90;;;13.10;;
57627;SDS011;43451;49.060;10.616;2022-12-18T16:08:40;38.78;;;15.40;;
57627;SDS011;43451;49.060;10.616;2022-12-18T16:11:08;35.72;;;14.02;;
57627;SDS011;43451;49.060;10.616;2022-12-18T16:13:45;37.10;;;15.10;;
57627;SDS011;43451;49.060;10.616;2022-12-18T16:16:10;34.13;;;14.43;;
57627;SDS011;43451;49.060;10.616;2022-12-18T16:18:36;34.28;;;13.32;;
57627;SDS011;43451;49.060;10.616;2022-12-18T16:21:01;34.88;;;13.00;;
57627;SDS011;43451;49.060;10.616;2022-12-18T16:23:27;36.70;;;14.15;;
57627;SDS011;43451;49.060;10.616;2022-12-18T16:25:52;39.30;;;14.40;;
57627;SDS011;43451;49.060;10.616;2022-12-18T16:28:17;38.80;;;14.85;;
57627;SDS011;43451;49.060;10.616;2022-12-18T16:30:43;38.30;;;15.35;;
57627;SDS011;43451;49.060;10.616;2022-12-18T16:33:09;38.42;;;15.85;;
57627;SDS011;43451;49.060;10.616;2022-12-18T16:35:35;39.42;;;15.38;;
57627;SDS011;43451;49.060;10.616;2022-12-18T16:38:02;33.72;;;14.50;;
57627;SDS011;43451;49.060;10.616;2022-12-18T16:40:27;40.63;;;15.60;;
57627;SDS011;43451;49.060;10.616;2022-12-18T16:42:56;41.47;;;15.82;;
57627;SDS011;43451;49.060;10.616;2022-12-18T16:45:21;38.60;;;14.93;;
57627;SDS011;43451;49.060;10.616;2022-12-18T16:47:47;43.47;;;15.57;;
57627;SDS011;43451;49.060;10.616;2022-12-18T16:50:12;37.47;;;14.82;;
57627;SDS011;43451;49.060;10.616;2022-12-18T16:52:38;36.42;;;14.82;;
57627;SDS011;43451;49.060;10.616;2022-12-18T16:55:05;38.42;;;15.23;;
57627;SDS011;43451;49.060;10.616;2022-12-18T16:57:31;40.22;;;15.80;;
57627;SDS011;43451;49.060;10.616;2022-12-18T16:59:58;39.50;;;16.75;;
57627;SDS011;43451;49.060;10.616;2022-12-18T17:02:24;42.97;;;15.85;;
57627;SDS011;43451;49.060;10.616;2022-12-18T17:04:54;44.67;;;16.77;;
57627;SDS011;43451;49.060;10.616;2022-12-18T17:07:21;41.30;;;15.82;;
57627;SDS011;43451;49.060;10.616;2022-12-18T17:09:47;42.85;;;16.40;;
57627;SDS011;43451;49.060;10.616;2022-12-18T17:12:14;44.03;;;16.88;;